sensor_id;sensor_type;location;lat;lon;timestamp;pressure;altitude;pressure_sealevel;temperature;humidity
39051;BME280;24805;55.852;37.644;2023-04-24T00:03:40;99368.03;;;14.27;27.94
39051;BME280;24805;55.852;37.644;2023-04-24T00:08:43;99376.25;;;14.19;27.35
39051;BME280;24805;55.852;37.644;2023-04-24T00:13:44;99371.72;;;14.12;28.06
39051;BME280;24805;55.852;37.644;2023-04-24T00:18:46;99372.31;;;14.08;26.19
39051;BME280;24805;55.852;37.644;2023-04-24T00:23:49;99371.09;;;14.04;26.99
39051;BME280;24805;55.852;37.644;2023-04-24T00:28:51;99371.09;;;14.10;27.08
39051;BME280;24805;55.852;37.644;2023-04-24T00:33:54;99367.84;;;14.15;27.32
39051;BME280;24805;55.852;37.644;2023-04-24T00:38:56;99373.16;;;14.15;26.98
39051;BME280;24805;55.852;37.644;2023-04-24T00:43:58;99365.59;;;14.19;27.75
39051;BME280;24805;55.852;37.644;2023-04-24T00:49:00;99367.84;;;14.15;28.04
39051;BME280;24805;55.852;37.644;2023-04-24T00:54:02;99367.63;;;14.10;28.25
39051;BME280;24805;55.852;37.644;2023-04-24T00:59:04;99369.84;;;14.06;27.91
39051;BME280;24805;55.852;37.644;2023-04-24T01:04:06;99370.25;;;14.03;27.65
39051;BME280;24805;55.852;37.644;2023-04-24T01:09:08;99368.00;;;14.00;27.44
39051;BME280;24805;55.852;37.644;2023-04-24T01:14:12;99375.41;;;13.98;27.71
39051;BME280;24805;55.852;37.644;2023-04-24T01:19:13;99363.09;;;13.97;26.81
39051;BME280;24805;55.852;37.644;2023-04-24T01:24:16;99364.72;;;13.92;27.97
39051;BME280;24805;55.852;37.644;2023-04-24T01:29:21;99369.59;;;13.82;28.97
39051;BME280;24805;55.852;37.644;2023-04-24T01:34:23;99369.81;;;13.80;26.55
39051;BME280;24805;55.852;37.644;2023-04-24T01:39:25;99361.63;;;13.88;26.79
39051;BME280;24805;55.852;37.644;2023-04-24T01:44:27;99358.78;;;13.96;27.42
39051;BME280;24805;55.852;37.644;2023-04-24T01:49:29;99361.44;;;13.96;26.84
39051;BME280;24805;55.852;37.644;2023-04-24T01:54:32;99353.66;;;13.95;27.17
39051;BME280;24805;55.852;37.644;2023-04-24T01:59:36;99358.97;;;13.95;26.90
39051;BME280;24805;55.852;37.644;2023-04-24T02:04:38;99355.50;;;13.94;25.89
39051;BME280;24805;55.852;37.644;2023-04-24T02:09:41;99358.16;;;13.94;25.57
39051;BME280;24805;55.852;37.644;2023-04-24T02:14:43;99353.25;;;13.98;26.08
39051;BME280;24805;55.852;37.644;2023-04-24T02:19:45;99358.34;;;13.99;27.08
39051;BME280;24805;55.852;37.644;2023-04-24T02:24:48;99361.63;;;14.01;25.68
39051;BME280;24805;55.852;37.644;2023-04-24T02:29:50;99362.47;;;14.02;26.03
39051;BME280;24805;55.852;37.644;2023-04-24T02:34:52;99363.69;;;14.06;25.20
39051;BME280;24805;55.852;37.644;2023-04-24T02:39:53;99367.41;;;14.11;25.70
39051;BME280;24805;55.852;37.644;2023-04-24T02:44:56;99371.13;;;14.17;25.75
39051;BME280;24805;55.852;37.644;2023-04-24T02:49:57;99374.78;;;14.23;26.09
39051;BME280;24805;55.852;37.644;2023-04-24T02:54:59;99375.00;;;14.28;26.33
39051;BME280;24805;55.852;37.644;2023-04-24T03:00:01;99383.44;;;14.31;26.75
39051;BME280;24805;55.852;37.644;2023-04-24T03:05:04;99376.66;;;14.35;27.09
39051;BME280;24805;55.852;37.644;2023-04-24T03:10:07;99374.81;;;14.36;26.98
39051;BME280;24805;55.852;37.644;2023-04-24T03:15:09;99387.97;;;14.37;27.55
39051;BME280;24805;55.852;37.644;2023-04-24T03:20:12;99388.38;;;14.41;27.20
39051;BME280;24805;55.852;37.644;2023-04-24T03:25:14;99387.34;;;14.42;27.45
39051;BME280;24805;55.852;37.644;2023-04-24T03:30:16;99386.75;;;14.46;27.55
39051;BME280;24805;55.852;37.644;2023-04-24T03:35:24;99387.16;;;14.50;27.19
39051;BME280;24805;55.852;37.644;2023-04-24T03:40:27;99399.06;;;14.54;27.59
39051;BME280;24805;55.852;37.644;2023-04-24T03:45:32;99396.59;;;14.59;27.77
39051;BME280;24805;55.852;37.644;2023-04-24T03:50:34;99398.22;;;14.67;27.77
39051;BME280;24805;55.852;37.644;2023-04-24T03:55:36;99401.53;;;14.75;28.17
39051;BME280;24805;55.852;37.644;2023-04-24T04:00:38;99406.22;;;14.87;27.53
39051;BME280;24805;55.852;37.644;2023-04-24T04:06:10;99404.34;;;15.00;27.89
39051;BME280;24805;55.852;37.644;2023-04-24T04:11:15;99410.50;;;15.14;27.84
39051;BME280;24805;55.852;37.644;2023-04-24T04:16:19;99408.59;;;15.21;27.92
39051;BME280;24805;55.852;37.644;2023-04-24T04:21:23;99412.66;;;15.43;28.26
39051;BME280;24805;55.852;37.644;2023-04-24T04:26:30;99406.44;;;15.63;28.21
39051;BME280;24805;55.852;37.644;2023-04-24T04:31:39;99413.09;;;15.85;27.50
39051;BME280;24805;55.852;37.644;2023-04-24T04:36:45;99415.25;;;16.08;27.66
39051;BME280;24805;55.852;37.644;2023-04-24T04:42:06;99415.31;;;16.26;28.14
39051;BME280;24805;55.852;37.644;2023-04-24T04:47:15;99422.38;;;16.45;27.77
39051;BME280;24805;55.852;37.644;2023-04-24T04:52:18;99423.69;;;16.61;27.15
39051;BME280;24805;55.852;37.644;2023-04-24T04:57:24;99421.47;;;16.83;28.03
39051;BME280;24805;55.852;37.644;2023-04-24T05:02:27;99423.91;;;17.09;27.96
39051;BME280;24805;55.852;37.644;2023-04-24T05:07:29;99428.63;;;17.69;27.63
39051;BME280;24805;55.852;37.644;2023-04-24T05:12:31;99422.41;;;19.05;27.77
39051;BME280;24805;55.852;37.644;2023-04-24T05:17:35;99423.00;;;20.55;26.57
39051;BME280;24805;55.852;37.644;2023-04-24T05:22:38;99431.06;;;22.10;25.54
39051;BME280;24805;55.852;37.644;2023-04-24T05:27:40;99423.03;;;23.21;25.15
39051;BME280;24805;55.852;37.644;2023-04-24T05:32:48;99426.13;;;24.22;24.04
39051;BME280;24805;55.852;37.644;2023-04-24T05:37:50;99421.84;;;24.62;23.26
39051;BME280;24805;55.852;37.644;2023-04-24T05:42:52;99431.81;;;25.27;22.75
39051;BME280;24805;55.852;37.644;2023-04-24T05:47:55;99427.69;;;26.09;21.75
39051;BME280;24805;55.852;37.644;2023-04-24T05:52:57;99433.19;;;26.77;21.35
39051;BME280;24805;55.852;37.644;2023-04-24T05:58:07;99421.75;;;27.33;20.01
39051;BME280;24805;55.852;37.644;2023-04-24T06:03:11;99425.84;;;27.78;19.96
39051;BME280;24805;55.852;37.644;2023-04-24T06:08:14;99420.81;;;28.28;19.34
39051;BME280;24805;55.852;37.644;2023-04-24T06:13:18;99412.19;;;28.72;18.11
39051;BME280;24805;55.852;37.644;2023-04-24T06:18:39;99422.13;;;29.69;17.93
39051;BME280;24805;55.852;37.644;2023-04-24T06:23:42;99427.59;;;30.19;17.74
39051;BME280;24805;55.852;37.644;2023-04-24T06:28:44;99427.50;;;30.46;17.04
39051;BME280;24805;55.852;37.644;2023-04-24T06:33:48;99430.97;;;31.45;16.41
39051;BME280;24805;55.852;37.644;2023-04-24T06:38:50;99435.84;;;32.13;15.01
39051;BME280;24805;55.852;37.644;2023-04-24T06:43:51;99425.81;;;31.92;15.26
39051;BME280;24805;55.852;37.644;2023-04-24T06:48:53;99435.47;;;31.98;14.92
39051;BME280;24805;55.852;37.644;2023-04-24T06:53:58;99429.34;;;31.83;13.00
39051;BME280;24805;55.852;37.644;2023-04-24T06:59:00;99442.25;;;31.92;14.25
39051;BME280;24805;55.852;37.644;2023-04-24T07:04:02;99432.22;;;31.78;14.15
39051;BME280;24805;55.852;37.644;2023-04-24T07:09:04;99431.16;;;32.48;12.50
39051;BME280;24805;55.852;37.644;2023-04-24T07:14:06;99436.78;;;32.86;13.24
39051;BME280;24805;55.852;37.644;2023-04-24T07:19:08;99443.25;;;32.91;11.51
39051;BME280;24805;55.852;37.644;2023-04-24T07:24:10;99437.44;;;32.14;12.58
39051;BME280;24805;55.852;37.644;2023-04-24T07:29:14;99426.78;;;32.13;12.16
39051;BME280;24805;55.852;37.644;2023-04-24T07:34:16;99441.81;;;32.15;11.93
39051;BME280;24805;55.852;37.644;2023-04-24T07:39:18;99432.63;;;32.46;11.47
39051;BME280;24805;55.852;37.644;2023-04-24T07:44:20;99435.53;;;32.32;12.18
39051;BME280;24805;55.852;37.644;2023-04-24T07:49:22;99419.50;;;32.86;11.67
39051;BME280;24805;55.852;37.644;2023-04-24T07:54:24;99423.06;;;33.25;11.05
39051;BME280;24805;55.852;37.644;2023-04-24T07:59:26;99423.25;;;31.47;11.39
39051;BME280;24805;55.852;37.644;2023-04-24T08:04:28;99411.47;;;32.29;11.82
39051;BME280;24805;55.852;37.644;2023-04-24T08:09:30;99413.84;;;33.97;10.25
39051;BME280;24805;55.852;37.644;2023-04-24T08:14:32;99422.28;;;34.99;10.13
39051;BME280;24805;55.852;37.644;2023-04-24T08:19:33;99416.16;;;36.99;9.97
39051;BME280;24805;55.852;37.644;2023-04-24T08:24:35;99410.47;;;38.64;9.83
39051;BME280;24805;55.852;37.644;2023-04-24T08:29:38;99406.00;;;39.73;9.16
39051;BME280;24805;55.852;37.644;2023-04-24T08:34:40;99415.78;;;40.53;7.70
39051;BME280;24805;55.852;37.644;2023-04-24T08:39:42;99407.19;;;40.66;7.93
39051;BME280;24805;55.852;37.644;2023-04-24T08:44:44;99407.91;;;41.44;8.06
39051;BME280;24805;55.852;37.644;2023-04-24T08:49:46;99395.31;;;41.13;7.07
39051;BME280;24805;55.852;37.644;2023-04-24T08:54:49;99396.88;;;39.73;7.84
39051;BME280;24805;55.852;37.644;2023-04-24T08:59:51;99382.56;;;37.99;8.66
39051;BME280;24805;55.852;37.644;2023-04-24T09:04:53;99375.56;;;37.66;8.75
39051;BME280;24805;55.852;37.644;2023-04-24T09:09:57;99383.53;;;38.64;7.68
39051;BME280;24805;55.852;37.644;2023-04-24T09:15:00;99389.13;;;39.59;7.10
39051;BME280;24805;55.852;37.644;2023-04-24T09:20:04;99395.72;;;40.04;7.02
39051;BME280;24805;55.852;37.644;2023-04-24T09:25:06;99378.00;;;37.20;8.02
39051;BME280;24805;55.852;37.644;2023-04-24T09:30:09;99367.31;;;35.39;9.06
39051;BME280;24805;55.852;37.644;2023-04-24T09:35:11;99348.34;;;36.02;9.62
39051;BME280;24805;55.852;37.644;2023-04-24T09:40:20;99361.72;;;39.57;8.49
39051;BME280;24805;55.852;37.644;2023-04-24T09:45:36;99336.47;;;42.91;5.71
39051;BME280;24805;55.852;37.644;2023-04-24T09:50:38;99333.22;;;44.48;7.08
39051;BME280;24805;55.852;37.644;2023-04-24T09:55:42;99343.44;;;42.07;6.79
39051;BME280;24805;55.852;37.644;2023-04-24T10:00:46;99325.56;;;41.43;7.83
39051;BME280;24805;55.852;37.644;2023-04-24T10:05:48;99343.59;;;42.68;7.06
39051;BME280;24805;55.852;37.644;2023-04-24T10:10:50;99341.16;;;42.41;6.22
39051;BME280;24805;55.852;37.644;2023-04-24T10:15:51;99337.06;;;41.38;7.60
39051;BME280;24805;55.852;37.644;2023-04-24T10:20:53;99344.91;;;41.21;7.09
39051;BME280;24805;55.852;37.644;2023-04-24T10:25:56;99322.97;;;41.71;7.16
39051;BME280;24805;55.852;37.644;2023-04-24T10:30:58;99326.19;;;41.77;5.39
39051;BME280;24805;55.852;37.644;2023-04-24T10:36:01;99322.63;;;38.68;7.25
39051;BME280;24805;55.852;37.644;2023-04-24T10:41:10;99306.88;;;36.58;8.32
39051;BME280;24805;55.852;37.644;2023-04-24T10:46:19;99298.75;;;35.78;8.46
39051;BME280;24805;55.852;37.644;2023-04-24T10:51:22;99294.97;;;35.70;8.23
39051;BME280;24805;55.852;37.644;2023-04-24T10:56:24;99294.13;;;35.82;8.42
39051;BME280;24805;55.852;37.644;2023-04-24T11:01:28;99294.00;;;35.26;8.51
39051;BME280;24805;55.852;37.644;2023-04-24T11:06:35;99294.91;;;35.95;8.48
39051;BME280;24805;55.852;37.644;2023-04-24T11:11:38;99282.34;;;37.70;8.55
39051;BME280;24805;55.852;37.644;2023-04-24T11:16:47;99282.97;;;38.21;7.21
39051;BME280;24805;55.852;37.644;2023-04-24T11:21:57;99284.78;;;35.46;8.32
39051;BME280;24805;55.852;37.644;2023-04-24T11:27:22;99279.31;;;33.53;9.09
39051;BME280;24805;55.852;37.644;2023-04-24T11:37:28;99260.47;;;33.64;9.55
39051;BME280;24805;55.852;37.644;2023-04-24T11:42:35;99268.03;;;35.79;8.42
39051;BME280;24805;55.852;37.644;2023-04-24T11:47:37;99258.72;;;37.96;8.93
39051;BME280;24805;55.852;37.644;2023-04-24T11:52:40;99239.41;;;39.13;8.26
39051;BME280;24805;55.852;37.644;2023-04-24T11:57:46;99247.22;;;39.98;7.92
39051;BME280;24805;55.852;37.644;2023-04-24T12:02:49;99232.78;;;39.85;6.49
39051;BME280;24805;55.852;37.644;2023-04-24T12:07:52;99234.34;;;39.22;7.37
39051;BME280;24805;55.852;37.644;2023-04-24T12:12:55;99225.53;;;38.64;6.90
39051;BME280;24805;55.852;37.644;2023-04-24T12:17:57;99217.75;;;37.28;7.45
39051;BME280;24805;55.852;37.644;2023-04-24T12:23:00;99229.72;;;36.49;7.76
39051;BME280;24805;55.852;37.644;2023-04-24T12:33:07;99214.84;;;35.67;7.63
39051;BME280;24805;55.852;37.644;2023-04-24T12:38:12;99229.22;;;35.32;7.60
39051;BME280;24805;55.852;37.644;2023-04-24T12:43:19;99200.34;;;34.08;8.43
39051;BME280;24805;55.852;37.644;2023-04-24T12:48:21;99196.59;;;33.38;8.57
39051;BME280;24805;55.852;37.644;2023-04-24T12:53:23;99190.66;;;32.56;9.25
39051;BME280;24805;55.852;37.644;2023-04-24T12:58:28;99195.44;;;32.30;9.40
39051;BME280;24805;55.852;37.644;2023-04-24T13:03:30;99195.13;;;32.61;9.25
39051;BME280;24805;55.852;37.644;2023-04-24T13:08:33;99176.97;;;33.27;9.13
39051;BME280;24805;55.852;37.644;2023-04-24T13:13:35;99196.88;;;33.45;9.05
39051;BME280;24805;55.852;37.644;2023-04-24T13:18:37;99181.63;;;32.85;9.34
39051;BME280;24805;55.852;37.644;2023-04-24T13:23:39;99178.28;;;31.86;9.21
39051;BME280;24805;55.852;37.644;2023-04-24T13:28:41;99172.53;;;30.22;9.96
39051;BME280;24805;55.852;37.644;2023-04-24T13:33:43;99159.81;;;29.28;10.39
39051;BME280;24805;55.852;37.644;2023-04-24T13:38:46;99155.69;;;28.67;10.26
39051;BME280;24805;55.852;37.644;2023-04-24T13:43:48;99159.84;;;28.24;10.48
39051;BME280;24805;55.852;37.644;2023-04-24T13:48:49;99163.59;;;28.28;10.64
39051;BME280;24805;55.852;37.644;2023-04-24T13:53:51;99156.00;;;28.25;11.09
39051;BME280;24805;55.852;37.644;2023-04-24T13:58:54;99139.41;;;27.94;10.80
39051;BME280;24805;55.852;37.644;2023-04-24T14:03:56;99133.81;;;27.53;11.14
39051;BME280;24805;55.852;37.644;2023-04-24T14:08:58;99141.25;;;26.96;11.74
39051;BME280;24805;55.852;37.644;2023-04-24T14:14:00;99130.75;;;26.41;11.37
39051;BME280;24805;55.852;37.644;2023-04-24T14:19:02;99124.34;;;26.03;11.64
39051;BME280;24805;55.852;37.644;2023-04-24T14:24:04;99122.09;;;25.58;13.07
39051;BME280;24805;55.852;37.644;2023-04-24T14:29:07;99119.88;;;25.26;13.06
39051;BME280;24805;55.852;37.644;2023-04-24T14:34:15;99134.78;;;24.79;13.48
39051;BME280;24805;55.852;37.644;2023-04-24T14:39:17;99122.22;;;24.49;12.93
39051;BME280;24805;55.852;37.644;2023-04-24T14:44:19;99126.09;;;24.33;13.09
39051;BME280;24805;55.852;37.644;2023-04-24T14:49:21;99120.41;;;24.29;13.16
39051;BME280;24805;55.852;37.644;2023-04-24T14:54:23;99113.59;;;24.37;13.26
39051;BME280;24805;55.852;37.644;2023-04-24T14:59:25;99122.78;;;24.41;13.28
39051;BME280;24805;55.852;37.644;2023-04-24T15:04:27;99115.50;;;24.21;13.63
39051;BME280;24805;55.852;37.644;2023-04-24T15:09:30;99120.16;;;24.11;13.80
39051;BME280;24805;55.852;37.644;2023-04-24T15:14:34;99114.47;;;24.12;13.78
39051;BME280;24805;55.852;37.644;2023-04-24T15:19:35;99109.88;;;24.02;14.23
39051;BME280;24805;55.852;37.644;2023-04-24T15:24:37;99113.44;;;23.88;14.32
39051;BME280;24805;55.852;37.644;2023-04-24T15:29:39;99104.25;;;23.68;13.97
39051;BME280;24805;55.852;37.644;2023-04-24T15:34:41;99109.94;;;23.47;14.02
39051;BME280;24805;55.852;37.644;2023-04-24T15:39:45;99109.94;;;23.26;14.42
39051;BME280;24805;55.852;37.644;2023-04-24T15:44:47;99105.31;;;23.12;14.57
39051;BME280;24805;55.852;37.644;2023-04-24T15:49:49;99099.88;;;23.01;14.01
39051;BME280;24805;55.852;37.644;2023-04-24T15:54:51;99098.53;;;22.89;14.51
39051;BME280;24805;55.852;37.644;2023-04-24T15:59:53;99090.63;;;22.72;14.06
39051;BME280;24805;55.852;37.644;2023-04-24T16:04:55;99101.41;;;22.57;15.93
39051;BME280;24805;55.852;37.644;2023-04-24T16:09:57;99095.38;;;22.40;14.84
39051;BME280;24805;55.852;37.644;2023-04-24T16:14:59;99097.47;;;22.17;14.74
39051;BME280;24805;55.852;37.644;2023-04-24T16:20:05;99100.03;;;21.97;15.28
39051;BME280;24805;55.852;37.644;2023-04-24T16:25:08;99101.53;;;21.78;16.71
39051;BME280;24805;55.852;37.644;2023-04-24T16:30:11;99109.78;;;21.61;15.39
39051;BME280;24805;55.852;37.644;2023-04-24T16:35:13;99104.78;;;21.43;16.19
39051;BME280;24805;55.852;37.644;2023-04-24T16:40:15;99102.47;;;21.24;16.55
39051;BME280;24805;55.852;37.644;2023-04-24T16:45:17;99105.00;;;21.09;17.65
39051;BME280;24805;55.852;37.644;2023-04-24T16:50:19;99106.53;;;21.00;16.99
39051;BME280;24805;55.852;37.644;2023-04-24T16:55:21;99111.78;;;20.85;17.00
39051;BME280;24805;55.852;37.644;2023-04-24T17:00:25;99124.84;;;20.71;17.54
39051;BME280;24805;55.852;37.644;2023-04-24T17:05:27;99141.94;;;20.60;18.27
39051;BME280;24805;55.852;37.644;2023-04-24T17:10:29;99138.03;;;20.46;18.82
39051;BME280;24805;55.852;37.644;2023-04-24T17:15:31;99140.91;;;20.39;18.80
39051;BME280;24805;55.852;37.644;2023-04-24T17:20:33;99161.31;;;20.35;17.70
39051;BME280;24805;55.852;37.644;2023-04-24T17:25:35;99158.47;;;20.25;18.17
39051;BME280;24805;55.852;37.644;2023-04-24T17:30:37;99153.56;;;20.22;17.73
39051;BME280;24805;55.852;37.644;2023-04-24T17:35:39;99159.66;;;20.12;18.38
39051;BME280;24805;55.852;37.644;2023-04-24T17:40:41;99151.72;;;20.06;18.05
39051;BME280;24805;55.852;37.644;2023-04-24T17:45:43;99171.84;;;19.98;18.55
39051;BME280;24805;55.852;37.644;2023-04-24T17:50:46;99177.13;;;19.93;19.07
39051;BME280;24805;55.852;37.644;2023-04-24T17:55:48;99171.91;;;19.86;17.80
39051;BME280;24805;55.852;37.644;2023-04-24T18:00:50;99175.34;;;19.82;18.22
39051;BME280;24805;55.852;37.644;2023-04-24T18:05:52;99173.13;;;19.79;17.97
39051;BME280;24805;55.852;37.644;2023-04-24T18:10:54;99176.34;;;19.76;18.80
39051;BME280;24805;55.852;37.644;2023-04-24T18:15:56;99179.28;;;19.74;18.77
39051;BME280;24805;55.852;37.644;2023-04-24T18:20:58;99187.34;;;19.74;18.09
39051;BME280;24805;55.852;37.644;2023-04-24T18:26:00;99179.53;;;19.73;18.81
39051;BME280;24805;55.852;37.644;2023-04-24T18:31:02;99184.41;;;19.76;18.23
39051;BME280;24805;55.852;37.644;2023-04-24T18:36:04;99179.84;;;19.93;18.23
39051;BME280;24805;55.852;37.644;2023-04-24T18:41:06;99178.28;;;19.97;18.00
39051;BME280;24805;55.852;37.644;2023-04-24T18:46:08;99178.50;;;19.79;18.47
39051;BME280;24805;55.852;37.644;2023-04-24T18:51:10;99184.91;;;19.73;18.12
39051;BME280;24805;55.852;37.644;2023-04-24T18:56:12;99185.97;;;19.72;18.41
39051;BME280;24805;55.852;37.644;2023-04-24T19:01:14;99179.31;;;19.79;18.22
39051;BME280;24805;55.852;37.644;2023-04-24T19:06:16;99176.97;;;19.83;18.21
39051;BME280;24805;55.852;37.644;2023-04-24T19:11:18;99176.47;;;19.86;18.45
39051;BME280;24805;55.852;37.644;2023-04-24T19:16:20;99186.44;;;19.85;18.08
39051;BME280;24805;55.852;37.644;2023-04-24T19:21:22;99182.94;;;19.85;18.16
39051;BME280;24805;55.852;37.644;2023-04-24T19:26:24;99176.16;;;19.82;18.60
39051;BME280;24805;55.852;37.644;2023-04-24T19:31:27;99189.63;;;19.82;18.28
39051;BME280;24805;55.852;37.644;2023-04-24T19:36:29;99189.56;;;19.77;18.34
39051;BME280;24805;55.852;37.644;2023-04-24T19:41:33;99189.13;;;19.69;18.72
39051;BME280;24805;55.852;37.644;2023-04-24T19:46:37;99174.97;;;19.56;18.67
39051;BME280;24805;55.852;37.644;2023-04-24T19:51:40;99193.22;;;19.43;19.56
39051;BME280;24805;55.852;37.644;2023-04-24T19:56:42;99189.91;;;19.36;19.43
39051;BME280;24805;55.852;37.644;2023-04-24T20:01:44;99186.53;;;19.28;19.54
39051;BME280;24805;55.852;37.644;2023-04-24T20:06:47;99182.34;;;19.21;18.99
39051;BME280;24805;55.852;37.644;2023-04-24T20:11:49;99185.44;;;19.13;20.79
39051;BME280;24805;55.852;37.644;2023-04-24T20:16:53;99189.91;;;19.07;19.85
39051;BME280;24805;55.852;37.644;2023-04-24T20:21:55;99193.31;;;19.03;20.32
39051;BME280;24805;55.852;37.644;2023-04-24T20:26:57;99190.22;;;18.94;19.66
39051;BME280;24805;55.852;37.644;2023-04-24T20:31:59;99191.28;;;18.81;19.84
39051;BME280;24805;55.852;37.644;2023-04-24T20:37:01;99182.47;;;18.69;20.30
39051;BME280;24805;55.852;37.644;2023-04-24T20:42:04;99189.81;;;18.62;19.79
39051;BME280;24805;55.852;37.644;2023-04-24T20:47:06;99185.75;;;18.59;19.97
39051;BME280;24805;55.852;37.644;2023-04-24T20:52:09;99182.94;;;18.54;20.19
39051;BME280;24805;55.852;37.644;2023-04-24T20:57:11;99187.63;;;18.47;20.39
39051;BME280;24805;55.852;37.644;2023-04-24T21:02:13;99198.25;;;18.42;20.27
39051;BME280;24805;55.852;37.644;2023-04-24T21:07:15;99208.91;;;18.37;20.80
39051;BME280;24805;55.852;37.644;2023-04-24T21:12:17;99189.97;;;18.32;21.02
39051;BME280;24805;55.852;37.644;2023-04-24T21:17:18;99195.00;;;18.29;20.52
39051;BME280;24805;55.852;37.644;2023-04-24T21:22:21;99195.56;;;18.19;20.86
39051;BME280;24805;55.852;37.644;2023-04-24T21:27:23;99194.53;;;18.08;21.54
39051;BME280;24805;55.852;37.644;2023-04-24T21:32:25;99194.56;;;17.97;21.29
39051;BME280;24805;55.852;37.644;2023-04-24T21:37:27;99191.84;;;17.85;21.26
39051;BME280;24805;55.852;37.644;2023-04-24T21:42:29;99200.38;;;17.70;20.71
39051;BME280;24805;55.852;37.644;2023-04-24T21:47:31;99189.22;;;17.55;21.20
39051;BME280;24805;55.852;37.644;2023-04-24T21:52:33;99185.31;;;17.39;21.32
39051;BME280;24805;55.852;37.644;2023-04-24T21:57:35;99188.22;;;17.26;20.85
39051;BME280;24805;55.852;37.644;2023-04-24T22:02:37;99190.66;;;17.16;21.32
39051;BME280;24805;55.852;37.644;2023-04-24T22:07:41;99184.78;;;17.07;21.34
39051;BME280;24805;55.852;37.644;2023-04-24T22:12:45;99182.06;;;16.96;21.83
39051;BME280;24805;55.852;37.644;2023-04-24T22:17:47;99185.28;;;16.86;21.84
39051;BME280;24805;55.852;37.644;2023-04-24T22:22:50;99189.53;;;16.75;23.07
39051;BME280;24805;55.852;37.644;2023-04-24T22:27:53;99186.72;;;16.70;22.27
39051;BME280;24805;55.852;37.644;2023-04-24T22:32:55;99182.25;;;16.64;22.48
39051;BME280;24805;55.852;37.644;2023-04-24T22:37:57;99179.97;;;16.61;22.19
39051;BME280;24805;55.852;37.644;2023-04-24T22:42:59;99175.75;;;16.53;23.31
39051;BME280;24805;55.852;37.644;2023-04-24T22:48:01;99171.91;;;16.49;22.80
39051;BME280;24805;55.852;37.644;2023-04-24T22:53:03;99169.06;;;16.44;23.12
39051;BME280;24805;55.852;37.644;2023-04-24T22:58:05;99176.38;;;16.37;22.68
39051;BME280;24805;55.852;37.644;2023-04-24T23:03:07;99179.13;;;16.31;22.96
39051;BME280;24805;55.852;37.644;2023-04-24T23:08:09;99170.53;;;16.22;23.06
39051;BME280;24805;55.852;37.644;2023-04-24T23:13:11;99172.06;;;16.18;23.27
39051;BME280;24805;55.852;37.644;2023-04-24T23:18:13;99172.94;;;16.12;23.62
39051;BME280;24805;55.852;37.644;2023-04-24T23:23:15;99171.94;;;16.06;25.51
39051;BME280;24805;55.852;37.644;2023-04-24T23:28:17;99167.03;;;16.03;23.96
39051;BME280;24805;55.852;37.644;2023-04-24T23:33:19;99166.44;;;16.01;24.16
39051;BME280;24805;55.852;37.644;2023-04-24T23:38:21;99173.41;;;16.02;23.85
39051;BME280;24805;55.852;37.644;2023-04-24T23:43:23;99166.22;;;16.03;24.09
39051;BME280;24805;55.852;37.644;2023-04-24T23:48:25;99177.13;;;16.01;25.29
39051;BME280;24805;55.852;37.644;2023-04-24T23:53:27;99172.91;;;15.94;26.51
39051;BME280;24805;55.852;37.644;2023-04-24T23:58:29;99171.94;;;15.88;25.15
